Nearby METAR Reports

METAR is the scheduled surface weather observation taken hourly at civil and military airport locations.

METAR is an acronym from the French language and roughly translates as Aviation Routine Weather Report.

 

EGPL - Benbecula Island, United Kingdom
Distance from station: WNW 41mi, 66km
Updated: 04/07/2022 03:50
Light rain, Mostly cloudy
Light rain, Mostly cloudy
 Wind from W
Wind: W 25 mph , 41 km/h
Temperature: 12°C
Dew Point: 10°C
Humidity: 88%
Barometer: 1010 hPa
Summary: Light rain
Clouds: Mostly cloudy
Visibility: 6 miles , 10 km
Cloud details: Mostly cloudy 335 m
Mostly cloudy 457 m
2022/07/04 02:50 EGPL 040250Z AUTO 27022KT 9999 -RA BKN011/// BKN015/// 12/10 Q1010
EGPU - Tiree Island, United Kingdom
Distance from station: SSW 56mi, 90km
Updated: 04/07/2022 03:50
Partly cloudy
Partly cloudy
 Wind from W
Wind: W 20 mph , 31 km/h
Temperature: 11°C
Dew Point: 9°C
Humidity: 88%
Barometer: 1013 hPa
Clouds: Partly cloudy
Visibility: 6 miles , 10 km
Cloud details: Partly cloudy 701 m
2022/07/04 02:50 EGPU 040250Z AUTO 28017KT 250V310 9999 SCT023/// 11/09 Q1013
 
EGEO - Oban Airport, United Kingdom
Distance from station: SE 65mi, 105km
Updated: 03/07/2022 17:20
NOT Current
Light rain, Drizzle, Overcast
Light rain, Drizzle, Overcast
 Wind from WSW
Wind: WSW 15 mph , 24 km/h
Temperature: 12°C
Dew Point: 10°C
Humidity: 88%
Barometer: 1016 hPa
Summary: Light rain, Drizzle
Clouds: Overcast
Visibility: 6 miles , 9 km
Cloud details: Few Clouds 305 m
Mostly cloudy 792 m
Overcast 1189 m
2022/07/03 16:20 EGEO 031620Z 24013KT 9000 -RADZ FEW010 BKN026 OVC039 12/10 Q1016
EGPO - Stornoway, United Kingdom
Distance from station: 0 66mi, 106km
Updated: 04/07/2022 03:50
Light rain, Mostly cloudy
Light rain, Mostly cloudy
 Wind from WSW
Wind: WSW 12 mph , 19 km/h, Gust: 24 mph , 39 km/h
Temperature: 10°C
Wind Chill: 7°C
Dew Point: 9°C
Humidity: 94%
Barometer: 1008 hPa
Summary: Light rain
Clouds: Mostly cloudy
Visibility: 4 miles , 7 km
Cloud details: Few Clouds 122 m
Partly cloudy 488 m
Mostly cloudy 671 m
2022/07/04 02:50 EGPO 040250Z AUTO 24010G21KT 7000 -RA FEW004/// SCT016/// BKN022/// 10/09 Q1008
 
EGPE - Inverness/Dalcro, United Kingdom
Distance from station: ENE 88mi, 141km
Updated: 04/07/2022 03:50
Overcast
Overcast
 Wind from SW
Wind: SW 9 mph , 15 km/h
Temperature: 10°C
Wind Chill: 8°C
Dew Point: 8°C
Humidity: 88%
Barometer: 1009 hPa
Clouds: Overcast
Visibility: 6 miles , 10 km
Cloud details: Mostly cloudy 1036 m
Overcast 1494 m
2022/07/04 02:50 EGPE 040250Z AUTO 22008KT 9999 BKN034/// OVC049/// 10/08 Q1009
EGQA - Tain Range (saws, United Kingdom
Distance from station: ENE 97mi, 156km
Updated: 01/07/2022 10:50
NOT Current
Mostly cloudy
Mostly cloudy
 Wind from NE
Wind: NE 7 mph , 11 km/h
Clouds: Mostly cloudy
Visibility: 6 miles , 10 km
Cloud details: Few Clouds 366 m
Mostly cloudy 5791 m
2022/07/01 09:50 EGQA 010950Z 04006KT 9999 FEW012 BKN190 17/// Q1011 RMK BLU
 
EGQK - Kinloss Raf, United Kingdom
Distance from station: ENE 107mi, 171km
Updated: 04/07/2022 03:50
Few Clouds
Few Clouds
 Wind from SW
Wind: SW 10 mph , 17 km/h
Temperature: 11°C
Dew Point: 8°C
Humidity: 82%
Barometer: 1009 hPa
Clouds: Few Clouds
Visibility: 6 miles , 10 km
Cloud details: Few Clouds 2682 m
2022/07/04 02:50 EGQK 040250Z AUTO 22009KT 9999 FEW088/// 11/08 Q1009
EGPI - Islay/Port Ellen, United Kingdom
Distance from station: S 110mi, 177km
Updated: 04/07/2022 03:50
Mostly cloudy
Mostly cloudy
 Wind from W
Wind: W 20 mph , 31 km/h
Temperature: 11°C
Dew Point: 10°C
Humidity: 94%
Barometer: 1015 hPa
Clouds: Mostly cloudy
Visibility: 6 miles , 10 km
Cloud details: Few Clouds 488 m
Mostly cloudy 1402 m
2022/07/04 02:50 EGPI 040250Z AUTO 28017KT 9999 FEW016/// BKN046/// 11/10 Q1015 REUP
 
EGQS - Lossiemouth Raf, United Kingdom
Distance from station: ENE 117mi, 188km
Updated: 04/07/2022 03:50
Clear
Clear
 Wind from SW
Wind: SW 13 mph , 20 km/h
Temperature: 11°C
Dew Point: 8°C
Humidity: 82%
Barometer: 1009 hPa
Summary: Clear
Visibility: greater than 7 miles , 10 km
2022/07/04 02:50 EGQS 040250Z 23011KT CAVOK 11/08 Q1009 RMK BLU
EGPF - Glasgow Airport, United Kingdom
Distance from station: SE 121mi, 195km
Updated: 04/07/2022 03:50
Thunderstorm
Thunderstorm
 Wind from WSW
Wind: WSW 14 mph , 22 km/h
Temperature: 11°C
Dew Point: 9°C
Humidity: 88%
Barometer: 1014 hPa
Clouds: Thunderstorm
Visibility: 6 miles , 10 km
Cloud details: Few Clouds 671 m
Partly cloudy 884 m
Mostly cloudy 1097 m
2022/07/04 02:50 EGPF 040250Z AUTO 25012KT 9999 FEW022/// SCT029/// BKN036/// //////TCU 11/09 Q1014
 
EGEC - Campbeltown, United Kingdom
Distance from station: SSE 129mi, 207km
Updated: 03/07/2022 17:50
NOT Current
Mostly cloudy
Mostly cloudy
 Wind from W
Wind: W 9 mph , 15 km/h
Temperature: 13°C
Dew Point: 11°C
Humidity: 88%
Barometer: 1018 hPa
Clouds: Mostly cloudy
Visibility: 6 miles , 10 km
Cloud details: Few Clouds 823 m
Mostly cloudy 1128 m
Mostly cloudy 1372 m
2022/07/03 16:50 EGEC 031650Z 27008KT 9999 FEW027 BKN037 BKN045 13/11 Q1018
EGPN - Dundee/Riverside, United Kingdom
Distance from station: ESE 137mi, 221km
Updated: 03/07/2022 20:50
NOT Current
Few Clouds
Few Clouds
 Wind from W
Wind: W 18 mph , 30 km/h
Temperature: 14°C
Dew Point: 10°C
Humidity: 77%
Barometer: 1014 hPa
Clouds: Few Clouds
Visibility: 6 miles , 10 km
Cloud details: Few Clouds 914 m
2022/07/03 19:50 EGPN 031950Z 26016KT 9999 FEW030 14/10 Q1014
 
EGPK - Prestwick(Civ/Na, United Kingdom
Distance from station: SSE 139mi, 224km
Updated: 04/07/2022 03:50
Mostly cloudy
Mostly cloudy
 Wind from WSW
Wind: WSW 15 mph , 24 km/h
Temperature: 12°C
Dew Point: 9°C
Humidity: 82%
Barometer: 1015 hPa
Clouds: Mostly cloudy
Visibility: 6 miles , 10 km
Cloud details: Partly cloudy 732 m
Mostly cloudy 1158 m
2022/07/04 02:50 EGPK 040250Z 25013KT 210V270 9999 SCT024 BKN038 12/09 Q1015
EGQL - Leuchars Raf, United Kingdom
Distance from station: ESE 145mi, 233km
Updated: 04/07/2022 03:50
Clear
Clear
 Wind from WSW
Wind: WSW 15 mph , 24 km/h
Temperature: 11°C
Dew Point: 9°C
Humidity: 88%
Barometer: 1012 hPa
Summary: Clear
Visibility: greater than 7 miles , 10 km
2022/07/04 02:50 EGQL 040250Z 24013KT CAVOK 11/09 Q1012 RMK BLU
 
EGPH - Edinburgh Airpor, United Kingdom
Distance from station: SE 145mi, 234km
Updated: 04/07/2022 03:50
Mostly cloudy
Mostly cloudy
 Wind from WSW
Wind: WSW 15 mph , 24 km/h
Temperature: 11°C
Dew Point: 9°C
Humidity: 88%
Barometer: 1013 hPa
Clouds: Mostly cloudy
Visibility: 6 miles , 10 km
Cloud details: Few Clouds 457 m
Mostly cloudy 1494 m
2022/07/04 02:50 EGPH 040250Z 24013KT 9999 FEW015 BKN049 11/09 Q1013
EGPC - Wick, United Kingdom
Distance from station: NE 146mi, 234km
Updated: 04/07/2022 03:50
Clear
Clear
 Wind from SW
Wind: SW 9 mph , 15 km/h
Temperature: 10°C
Wind Chill: 8°C
Dew Point: 8°C
Humidity: 88%
Barometer: 1007 hPa
Clouds: Clear
Visibility: 6 miles , 10 km
2022/07/04 02:50 EGPC 040250Z AUTO 22008KT 9999 NCD 10/08 Q1007

-

free counters
Scottish Weather Network UK Weather Network